Time;durP1;ratioP1;P1;durP2;ratioP2;P2;SDS_P1;SDS_P2;PMS_P1;PMS_P2;Temp;Humidity;BMP_temperature;BMP_pressure;BME280_temperature;BME280_humidity;BME280_pressure;Samples;Min_cycle;Max_cycle;Signal;HPM_P1;HPM_P2
2021/12/13 00:02:04;;;;;;;18.65;11.03;;;;;;;1.10;73.17;101598.57;1749707;80;20892;-68
2021/12/13 00:04:39;;;;;;;18.87;10.80;;;;;;;1.11;73.20;101586.51;1748532;81;21164;-68
2021/12/13 00:07:17;;;;;;;13.60;9.75;;;;;;;1.12;73.18;101582.63;1753406;81;21513;-67
2021/12/13 00:09:49;;;;;;;21.17;11.10;;;;;;;1.11;73.08;101573.19;1754410;80;20948;-68
2021/12/13 00:12:32;;;;;;;20.92;11.43;;;;;;;1.12;73.21;101576.62;1754626;80;20932;-68
2021/12/13 00:14:59;;;;;;;21.50;12.45;;;;;;;1.12;73.22;101578.76;1754721;80;21066;-69
2021/12/13 00:17:39;;;;;;;23.60;13.35;;;;;;;1.11;73.25;101570.59;1754901;81;21564;-69
2021/12/13 00:20:14;;;;;;;32.73;15.25;;;;;;;1.12;73.24;101565.84;1754477;81;21438;-67
2021/12/13 00:22:49;;;;;;;23.07;13.40;;;;;;;1.12;73.25;101574.88;1753589;80;20920;-68
2021/12/13 00:25:20;;;;;;;31.33;15.85;;;;;;;1.13;73.30;101584.33;1754546;80;20936;-68
2021/12/13 00:27:58;;;;;;;22.98;12.80;;;;;;;1.15;73.26;101567.10;1754902;80;20884;-67
2021/12/13 00:30:56;;;;;;;23.30;11.85;;;;;;;1.17;73.17;101574.41;1754446;81;21111;-68
2021/12/13 00:33:47;;;;;;;25.85;11.73;;;;;;;1.16;73.00;101571.42;1724581;81;21457;-67
2021/12/13 00:36:34;;;;;;;27.35;12.85;;;;;;;1.14;73.05;101555.07;1753987;81;21048;-68
2021/12/13 00:39:18;;;;;;;23.83;12.07;;;;;;;1.10;72.90;101549.49;1754776;80;20896;-68
2021/12/13 00:41:46;;;;;;;22.42;12.03;;;;;;;1.08;72.96;101557.68;1754579;81;21012;-67
2021/12/13 00:44:21;;;;;;;27.48;13.48;;;;;;;1.08;72.98;101562.00;1754838;80;21069;-69
2021/12/13 00:46:51;;;;;;;19.57;12.58;;;;;;;1.05;72.96;101556.86;1754421;81;21210;-68
2021/12/13 00:49:22;;;;;;;40.98;13.40;;;;;;;1.04;73.09;101555.98;1754990;81;20931;-68
2021/12/13 00:51:51;;;;;;;16.55;11.30;;;;;;;1.02;72.94;101559.00;1754644;81;22322;-69
2021/12/13 00:54:26;;;;;;;22.62;13.10;;;;;;;0.99;72.92;101553.86;1755266;81;20877;-68
2021/12/13 00:57:04;;;;;;;25.02;12.37;;;;;;;0.98;73.07;101556.89;1755331;80;21173;-67
2021/12/13 00:59:37;;;;;;;19.48;11.30;;;;;;;1.00;73.13;101546.52;1754528;81;20924;-68
2021/12/13 01:02:22;;;;;;;24.72;13.93;;;;;;;0.99;73.01;101534.05;1744762;80;21527;-68
2021/12/13 01:05:03;;;;;;;20.30;11.97;;;;;;;0.97;72.99;101542.23;1742477;81;20944;-68
2021/12/13 01:08:12;;;;;;;28.83;12.30;;;;;;;0.95;73.08;101545.70;1744439;80;20972;-70
2021/12/13 01:10:57;;;;;;;18.87;11.90;;;;;;;0.97;73.18;101549.13;1744457;81;21140;-67
2021/12/13 01:13:34;;;;;;;;;;;;;;;0.97;73.11;101529.77;1746969;82;21402;-67
2021/12/13 01:16:36;;;;;;;27.42;14.63;;;;;;;0.95;73.13;101545.26;1744458;81;20578;-67
2021/12/13 01:19:27;;;;;;;23.38;13.62;;;;;;;0.94;73.17;101540.12;1743447;81;21012;-68
2021/12/13 01:22:12;;;;;;;22.35;13.30;;;;;;;0.93;73.12;101534.52;1743791;81;21438;-67
2021/12/13 01:27:40;;;;;;;23.62;11.65;;;;;;;0.89;73.30;101508.28;1736184;82;20908;-68
2021/12/13 01:30:18;;;;;;;27.70;13.53;;;;;;;0.87;73.30;101512.19;1732170;81;20976;-66
2021/12/13 01:32:49;;;;;;;26.20;13.05;;;;;;;0.85;73.35;101510.05;1745047;81;21093;-69
2021/12/13 01:35:23;;;;;;;27.32;13.45;;;;;;;0.83;73.48;101510.48;1744688;81;20942;-67
2021/12/13 01:37:54;;;;;;;23.98;12.58;;;;;;;0.80;73.50;101515.23;1745032;82;21892;-67
2021/12/13 01:40:25;;;;;;;19.45;14.13;;;;;;;0.80;73.62;101515.23;1744594;81;20948;-68
2021/12/13 01:43:04;;;;;;;25.85;13.50;;;;;;;0.82;73.67;101513.51;1744995;81;20948;-68
2021/12/13 01:45:34;;;;;;;25.35;14.43;;;;;;;0.85;73.69;101516.50;1744355;81;21347;-67
2021/12/13 01:48:01;;;;;;;27.87;12.70;;;;;;;0.86;73.60;101525.09;1744727;82;20870;-67
2021/12/13 01:50:42;;;;;;;24.20;13.98;;;;;;;0.87;73.60;101526.80;1744875;81;21154;-68
2021/12/13 01:53:04;;;;;;;21.12;13.43;;;;;;;0.85;73.56;101520.38;1744795;81;20885;-68
2021/12/13 01:55:36;;;;;;;23.50;14.60;;;;;;;0.83;73.65;101544.05;1744673;82;21364;-68
2021/12/13 01:58:37;;;;;;;28.60;15.85;;;;;;;0.80;73.73;101515.64;1733992;82;21007;-68
2021/12/13 02:01:11;;;;;;;23.73;15.55;;;;;;;0.80;73.85;101493.70;1748128;80;20959;-67
2021/12/13 02:03:46;;;;;;;27.42;15.23;;;;;;;0.81;73.92;101504.03;1757856;80;21096;-68
2021/12/13 02:06:35;;;;;;;31.95;17.37;;;;;;;0.81;73.74;101513.06;1758047;81;20916;-68
2021/12/13 02:09:24;;;;;;;33.90;19.30;;;;;;;0.81;73.81;101521.25;1757901;81;21434;-67
2021/12/13 02:11:56;;;;;;;32.58;16.67;;;;;;;0.83;73.83;101515.20;1757729;81;20856;-68
2021/12/13 02:14:28;;;;;;;27.50;15.75;;;;;;;0.84;73.78;101507.02;1758175;81;20979;-69
2021/12/13 02:17:10;;;;;;;31.33;17.92;;;;;;;0.84;73.78;101503.15;1757982;81;21165;-68
2021/12/13 02:19:51;;;;;;;29.10;16.67;;;;;;;0.82;73.76;101501.01;1758030;81;20955;-68
2021/12/13 02:22:46;;;;;;;31.62;18.85;;;;;;;0.83;73.81;101497.58;1757998;81;20928;-68
2021/12/13 02:25:25;;;;;;;29.15;17.42;;;;;;;0.80;73.80;101499.74;1758236;80;20939;-67
2021/12/13 02:28:00;;;;;;;32.20;18.80;;;;;;;0.77;73.83;101506.20;1758700;81;20962;-67
2021/12/13 02:30:45;;;;;;;24.25;14.85;;;;;;;0.75;73.93;101502.77;1753626;81;21120;-69
2021/12/13 02:33:20;;;;;;;24.52;16.82;;;;;;;0.78;74.00;101510.52;1757910;81;21019;-68
2021/12/13 02:35:53;;;;;;;26.70;15.53;;;;;;;0.79;73.97;101509.62;1757808;81;21471;-69
2021/12/13 02:38:20;;;;;;;28.87;15.40;;;;;;;0.79;74.02;101506.20;1758362;81;20888;-69
2021/12/13 02:40:47;;;;;;;28.40;17.17;;;;;;;0.78;74.10;101485.98;1758147;81;20924;-70
2021/12/13 02:43:15;;;;;;;27.50;17.95;;;;;;;0.80;73.99;101489.42;1757877;81;21893;-69
2021/12/13 02:45:47;;;;;;;31.30;17.07;;;;;;;0.80;73.94;101485.95;1758142;80;21470;-68
2021/12/13 02:48:24;;;;;;;32.00;18.32;;;;;;;0.78;73.98;101483.84;1757965;81;21438;-69
2021/12/13 02:51:09;;;;;;;31.40;16.75;;;;;;;0.78;74.11;101490.30;1757902;81;20967;-68
2021/12/13 02:53:47;;;;;;;29.67;17.80;;;;;;;0.79;74.10;101482.96;1758049;81;20924;-69
2021/12/13 02:56:24;;;;;;;29.82;18.85;;;;;;;0.77;74.05;101479.53;1758095;81;21551;-68
2021/12/13 02:58:52;;;;;;;32.73;18.95;;;;;;;0.76;74.11;101482.99;1757834;81;20880;-68
2021/12/13 03:01:34;;;;;;;27.20;17.82;;;;;;;0.75;74.14;101473.08;1757808;80;20919;-67
2021/12/13 03:04:04;;;;;;;22.40;16.00;;;;;;;0.73;74.21;101489.00;1757409;80;20916;-68
2021/12/13 03:06:35;;;;;;;25.55;16.02;;;;;;;0.73;74.17;101483.84;1758161;81;21378;-68
2021/12/13 03:09:13;;;;;;;28.02;17.55;;;;;;;0.73;74.17;101484.28;1757917;81;21226;-68
2021/12/13 03:11:40;;;;;;;25.17;16.65;;;;;;;0.72;74.21;101484.72;1758056;80;20916;-67
2021/12/13 03:14:15;;;;;;;32.17;18.37;;;;;;;0.72;74.29;101488.59;1758007;81;20853;-69
2021/12/13 03:16:56;;;;;;;33.35;19.07;;;;;;;0.75;74.22;101504.49;1758079;81;20857;-69
2021/12/13 03:19:49;;;;;;;31.37;20.70;;;;;;;0.75;74.31;101490.30;1757171;81;20861;-69
2021/12/13 03:22:47;;;;;;;30.62;18.37;;;;;;;0.75;74.35;101485.13;1756179;80;21921;-68
2021/12/13 03:25:28;;;;;;;30.37;20.27;;;;;;;0.76;74.25;101489.45;1742230;81;20952;-68
2021/12/13 03:28:36;;;;;;;32.75;18.37;;;;;;;0.74;74.31;101485.58;1757780;81;20890;-67
2021/12/13 03:31:08;;;;;;;29.20;18.25;;;;;;;0.73;74.31;101477.83;1766460;80;21485;-67
2021/12/13 03:33:52;;;;;;;30.10;17.55;;;;;;;0.71;74.40;101484.31;1789691;80;20883;-68
2021/12/13 03:36:37;;;;;;;31.80;19.17;;;;;;;0.70;74.46;101478.70;1789325;80;22193;-68
2021/12/13 03:39:04;;;;;;;35.27;20.10;;;;;;;0.70;74.51;101480.00;1789746;80;21575;-68
2021/12/13 03:41:32;;;;;;;34.08;19.70;;;;;;;0.70;74.53;101484.31;1763207;80;21086;-68
2021/12/13 03:44:05;;;;;;;33.02;20.23;;;;;;;0.69;74.58;101486.04;1763487;80;20923;-68
2021/12/13 03:46:33;;;;;;;32.38;18.87;;;;;;;0.70;74.51;101467.53;1790002;80;20860;-69
2021/12/13 03:49:00;;;;;;;34.48;21.05;;;;;;;0.71;74.63;101470.52;1789662;78;21084;-69
2021/12/13 03:51:32;;;;;;;30.00;18.65;;;;;;;0.73;74.59;101481.70;1789813;80;20915;-68
2021/12/13 03:54:00;;;;;;;31.27;19.02;;;;;;;0.72;74.51;101474.39;1789706;80;21579;-67
2021/12/13 03:56:31;;;;;;;24.82;17.62;;;;;;;0.69;74.54;101474.42;1789780;80;20851;-68
2021/12/13 03:59:02;;;;;;;28.90;19.55;;;;;;;0.67;74.57;101479.14;1789972;80;20899;-68
2021/12/13 04:01:40;;;;;;;26.17;16.90;;;;;;;0.64;74.65;101483.89;1788711;80;21124;-69
2021/12/13 04:04:10;;;;;;;28.40;17.95;;;;;;;0.62;74.74;101474.01;1786423;80;21465;-69
2021/12/13 04:06:47;;;;;;;31.97;20.88;;;;;;;0.59;74.84;101473.59;1786822;80;20987;-68
2021/12/13 04:09:14;;;;;;;36.48;20.50;;;;;;;0.56;74.90;101464.59;1786464;79;20966;-68
2021/12/13 04:11:43;;;;;;;26.90;18.70;;;;;;;0.58;75.05;101464.15;1786505;80;20836;-67
2021/12/13 04:14:16;;;;;;;32.73;17.73;;;;;;;0.59;75.09;101479.20;1786558;79;21345;-69
2021/12/13 04:17:04;;;;;;;30.25;19.48;;;;;;;0.62;75.08;101476.59;1758975;80;21333;-67
2021/12/13 04:19:22;;;;;;;37.17;20.35;;;;;;;0.62;75.11;101477.87;1784433;79;20911;-68
2021/12/13 04:22:00;;;;;;;36.05;19.67;;;;;;;0.64;75.14;101470.98;1786430;80;20856;-68
2021/12/13 04:24:39;;;;;;;29.15;18.73;;;;;;;0.67;75.04;101472.69;1786659;79;21365;-67
2021/12/13 04:27:12;;;;;;;30.90;18.70;;;;;;;0.65;75.08;101467.55;1786553;80;21932;-68
2021/12/13 04:29:41;;;;;;;30.80;19.15;;;;;;;0.66;75.11;101463.25;1744485;80;20900;-68
2021/12/13 04:32:31;;;;;;;29.18;18.77;;;;;;;0.66;75.11;101465.83;1749205;82;20900;-68
2021/12/13 04:35:00;;;;;;;31.42;19.23;;;;;;;0.65;75.13;101458.52;1722634;83;21538;-68
2021/12/13 04:37:30;;;;;;;36.28;20.77;;;;;;;0.64;75.18;101449.05;1722980;82;21466;-67
2021/12/13 04:40:02;;;;;;;41.50;21.27;;;;;;;0.66;75.27;101446.47;1731029;83;21154;-67
2021/12/13 04:42:29;;;;;;;34.95;21.07;;;;;;;0.65;75.21;101448.20;1730921;82;20980;-68
2021/12/13 04:45:08;;;;;;;29.30;19.07;;;;;;;0.65;75.21;101455.94;1731034;82;20885;-68
2021/12/13 04:47:49;;;;;;;31.40;19.62;;;;;;;0.64;75.21;101455.50;1730352;82;20999;-68
2021/12/13 04:50:38;;;;;;;36.68;17.95;;;;;;;0.61;75.26;101464.13;1731168;83;20948;-68
2021/12/13 04:53:05;;;;;;;29.80;18.20;;;;;;;0.59;75.29;101462.42;1731128;83;21157;-66
2021/12/13 04:55:37;;;;;;;25.25;16.35;;;;;;;0.57;75.41;101458.98;1730998;83;20885;-67
2021/12/13 04:58:08;;;;;;;23.75;15.13;;;;;;;0.57;75.45;101470.16;1729988;82;20976;-68
2021/12/13 05:00:38;;;;;;;27.27;15.78;;;;;;;0.57;75.52;101471.89;1731209;83;20936;-67
2021/12/13 05:03:06;;;;;;;25.32;14.20;;;;;;;0.58;75.55;101462.86;1726458;82;20984;-68
2021/12/13 05:05:34;;;;;;;27.70;16.50;;;;;;;0.60;75.64;101458.55;1780646;80;21185;-68
2021/12/13 05:08:01;;;;;;;31.17;19.05;;;;;;;0.63;75.65;101458.96;1743884;82;20924;-68
2021/12/13 05:10:30;;;;;;;40.38;20.40;;;;;;;0.65;75.67;101458.97;1743588;81;20947;-67
2021/12/13 05:16:10;;;;;;;30.23;19.32;;;;;;;0.78;75.56;101455.45;1871426;76;22609;-69
2021/12/13 05:18:50;;;;;;;29.85;19.70;;;;;;;0.77;75.52;101453.71;1827443;77;21010;-69
2021/12/13 05:21:29;;;;;;;33.02;19.62;;;;;;;0.78;75.39;101449.84;1808647;78;21120;-68
2021/12/13 05:24:03;;;;;;;34.53;23.05;;;;;;;0.78;75.40;101442.09;1785143;78;20828;-68
2021/12/13 05:26:38;;;;;;;34.65;22.40;;;;;;;0.78;75.46;101455.00;1827481;78;20904;-67
2021/12/13 05:29:09;;;;;;;33.40;20.97;;;;;;;0.78;75.49;101456.73;1828089;78;21393;-68
2021/12/13 05:31:36;;;;;;;36.93;19.85;;;;;;;0.78;75.51;101467.91;1823916;77;21337;-68
2021/12/13 05:34:05;;;;;;;28.57;16.65;;;;;;;0.76;75.37;101458.47;1827674;78;21110;-69
2021/12/13 05:36:36;;;;;;;22.62;15.55;;;;;;;0.71;75.46;101459.79;1827405;78;21424;-68
2021/12/13 05:39:16;;;;;;;33.18;17.15;;;;;;;0.66;75.47;101461.95;1827856;78;20852;-68
2021/12/13 05:41:53;;;;;;;34.15;16.45;;;;;;;0.60;75.56;101480.48;1827785;78;20943;-68
2021/12/13 05:44:34;;;;;;;32.08;16.20;;;;;;;0.58;75.73;101491.25;1827484;77;21481;-69
2021/12/13 05:47:05;;;;;;;26.35;14.87;;;;;;;0.58;75.84;101492.98;1827525;77;21130;-67
2021/12/13 05:49:36;;;;;;;33.38;17.45;;;;;;;0.59;75.77;101481.34;1826604;77;20974;-67
2021/12/13 05:52:15;;;;;;;29.27;16.85;;;;;;;0.60;75.88;101479.20;1827249;78;20852;-68
2021/12/13 05:54:57;;;;;;;27.45;16.65;;;;;;;0.62;75.88;101486.91;1827624;77;20919;-69
2021/12/13 05:57:29;;;;;;;34.45;16.45;;;;;;;0.57;75.90;101474.03;1827681;78;20954;-68
2021/12/13 06:00:11;;;;;;;28.10;15.43;;;;;;;0.54;76.01;101484.82;1826233;78;21125;-68
2021/12/13 06:03:05;;;;;;;27.70;14.68;;;;;;;0.56;76.15;101490.39;1827354;77;20924;-68
2021/12/13 06:05:43;;;;;;;24.20;16.07;;;;;;;0.55;76.04;101484.80;1827510;78;21025;-68
2021/12/13 06:08:18;;;;;;;32.20;16.90;;;;;;;0.53;76.22;101477.92;1827427;78;20896;-68
2021/12/13 06:11:04;;;;;;;30.40;16.55;;;;;;;0.53;76.20;101474.91;1827451;78;20828;-69
2021/12/13 06:13:55;;;;;;;30.92;16.30;;;;;;;0.52;76.27;101474.50;1827421;78;20888;-68
2021/12/13 06:16:39;;;;;;;30.82;16.12;;;;;;;0.54;76.33;101470.19;1833369;78;20966;-68
2021/12/13 06:19:36;;;;;;;34.83;16.27;;;;;;;0.56;76.27;101474.06;1833866;77;20856;-70
2021/12/13 06:22:14;;;;;;;25.45;14.78;;;;;;;0.52;76.32;101475.78;1833511;78;20871;-69
2021/12/13 06:24:57;;;;;;;30.55;16.12;;;;;;;0.49;76.37;101481.37;1832822;77;20895;-68
2021/12/13 06:27:30;;;;;;;30.60;15.43;;;;;;;0.47;76.48;101488.27;1832875;77;21108;-66
2021/12/13 06:30:03;;;;;;;26.37;14.63;;;;;;;0.47;76.53;101493.02;1833135;78;20907;-68
2021/12/13 06:32:41;;;;;;;22.53;13.97;;;;;;;0.46;76.59;101482.70;1833375;78;21009;-69
2021/12/13 06:35:58;;;;;;;25.80;15.10;;;;;;;0.44;76.80;101485.27;1823510;76;20896;-68
2021/12/13 06:38:57;;;;;;;26.90;17.07;;;;;;;0.41;76.87;101490.02;1832991;78;21405;-72
2021/12/13 06:41:37;;;;;;;27.00;15.98;;;;;;;0.44;76.90;101487.86;1832415;77;21521;-70
2021/12/13 06:44:08;;;;;;;27.62;14.78;;;;;;;0.46;77.02;101496.89;1833001;78;20970;-72
2021/12/13 06:46:52;;;;;;;28.55;16.27;;;;;;;0.50;77.11;101490.86;1833035;78;20891;-72
2021/12/13 06:49:33;;;;;;;28.95;15.98;;;;;;;0.56;77.05;101498.14;1833116;78;21441;-68
2021/12/13 06:52:15;;;;;;;37.03;17.05;;;;;;;0.58;76.77;101491.69;1830619;77;20875;-69
2021/12/13 06:54:49;;;;;;;34.40;17.48;;;;;;;0.55;76.85;101502.86;1833022;77;21497;-69
2021/12/13 06:57:24;;;;;;;27.55;16.75;;;;;;;0.58;76.96;101523.52;1833362;78;21410;-70
2021/12/13 07:00:07;;;;;;;33.65;17.40;;;;;;;0.63;76.89;101515.75;1834571;78;28143;-69
2021/12/13 07:02:42;;;;;;;34.95;18.40;;;;;;;0.66;76.95;101516.16;1833731;77;20931;-70
2021/12/13 07:05:23;;;;;;;31.00;18.32;;;;;;;0.68;76.76;101513.99;1833374;78;20864;-69
2021/12/13 07:08:06;;;;;;;29.55;17.77;;;;;;;0.68;76.68;101511.85;1833008;78;21156;-70
2021/12/13 07:10:55;;;;;;;30.88;20.08;;;;;;;0.67;76.70;101512.70;1832864;78;20963;-68
2021/12/13 07:13:30;;;;;;;34.10;17.75;;;;;;;0.67;76.79;101507.53;1833415;77;20876;-69
2021/12/13 07:16:16;;;;;;;33.55;18.37;;;;;;;0.66;76.79;101509.70;1828174;78;21369;-68
2021/12/13 07:18:48;;;;;;;31.95;15.90;;;;;;;0.66;76.81;101505.39;1826904;78;20915;-72
2021/12/13 07:21:26;;;;;;;24.23;16.17;;;;;;;0.65;76.92;101504.13;1826862;78;21071;-69
2021/12/13 07:24:07;;;;;;;30.50;17.05;;;;;;;0.64;77.10;101507.13;1827190;78;21429;-70
2021/12/13 07:26:55;;;;;;;32.28;17.10;;;;;;;0.65;77.10;101512.73;1826921;78;20880;-69
2021/12/13 07:29:43;;;;;;;30.90;17.65;;;;;;;0.70;77.07;101510.97;1826111;77;20966;-73
2021/12/13 07:32:32;;;;;;;31.45;16.57;;;;;;;0.73;77.01;101504.48;1826808;77;20994;-69
2021/12/13 07:35:12;;;;;;;27.98;16.55;;;;;;;0.74;76.98;101501.06;1827014;78;21123;-70
2021/12/13 07:38:02;;;;;;;27.60;16.65;;;;;;;0.74;76.98;101509.25;1826756;78;20946;-68
2021/12/13 07:40:59;;;;;;;31.52;17.10;;;;;;;0.72;77.12;101499.36;1826946;78;20856;-70
2021/12/13 07:43:39;;;;;;;26.68;15.68;;;;;;;0.73;77.10;101489.00;1826791;78;20883;-70
2021/12/13 07:46:24;;;;;;;30.17;17.48;;;;;;;0.75;77.20;101482.11;1827019;78;21412;-70
2021/12/13 07:48:54;;;;;;;;;;;;;;;0.78;77.24;101496.75;1829481;77;21813;-70
2021/12/13 07:51:27;;;;;;;27.62;18.70;;;;;;;0.81;77.15;101503.17;1827064;78;20099;-70
2021/12/13 07:54:05;;;;;;;28.38;18.37;;;;;;;0.83;77.11;101498.42;1827101;78;20907;-68
2021/12/13 07:56:38;;;;;;;26.68;16.60;;;;;;;0.88;77.04;101507.44;1826927;78;20868;-70
2021/12/13 07:59:32;;;;;;;27.95;17.55;;;;;;;0.95;76.94;101514.72;1827227;77;20910;-72
2021/12/13 08:02:15;;;;;;;31.05;18.87;;;;;;;0.99;76.93;101512.10;1826979;78;21125;-71
2021/12/13 08:04:51;;;;;;;38.10;22.25;;;;;;;1.04;76.90;101508.20;1826731;78;20887;-69
2021/12/13 08:07:25;;;;;;;41.50;25.23;;;;;;;1.13;76.85;101497.80;1826866;78;20841;-69
2021/12/13 08:10:09;;;;;;;35.40;23.38;;;;;;;1.21;76.71;101497.77;1827174;78;20978;-69
2021/12/13 08:12:46;;;;;;;37.38;24.82;;;;;;;1.28;76.31;101510.20;1827010;78;20857;-69
2021/12/13 08:15:23;;;;;;;45.30;26.37;;;;;;;1.28;76.18;101517.52;1826746;77;21162;-70
2021/12/13 08:18:02;;;;;;;39.48;25.00;;;;;;;1.30;76.11;101526.55;1830236;78;20881;-69
2021/12/13 08:20:34;;;;;;;37.67;23.60;;;;;;;1.31;76.06;101530.43;1826531;77;20841;-69
2021/12/13 08:23:04;;;;;;;40.43;24.67;;;;;;;1.33;75.97;101521.35;1814731;78;20896;-69
2021/12/13 08:25:36;;;;;;;39.45;21.02;;;;;;;1.37;76.27;101521.31;1830251;77;20930;-69
2021/12/13 08:28:11;;;;;;;33.98;21.20;;;;;;;1.43;75.85;101514.81;1814086;78;21090;-68
2021/12/13 08:30:57;;;;;;;30.90;20.97;;;;;;;1.45;75.67;101506.62;1830215;77;20904;-70
2021/12/13 08:33:32;;;;;;;32.98;18.48;;;;;;;1.45;75.72;101487.68;1831061;78;20892;-69
2021/12/13 08:36:17;;;;;;;34.05;19.30;;;;;;;1.48;75.49;101481.18;1830702;77;20928;-71
2021/12/13 08:39:13;;;;;;;39.20;20.45;;;;;;;1.50;75.29;101486.34;1830610;77;20955;-71
2021/12/13 08:41:58;;;;;;;35.92;22.52;;;;;;;1.46;75.27;101490.67;1830311;78;21484;-69
2021/12/13 08:44:44;;;;;;;39.50;23.87;;;;;;;1.43;75.48;101500.60;1829107;77;21002;-68
2021/12/13 08:47:19;;;;;;;37.00;23.75;;;;;;;1.43;75.59;101503.63;1830542;78;20955;-69
2021/12/13 08:49:50;;;;;;;34.30;22.65;;;;;;;1.46;75.58;101486.79;1830293;77;20872;-68
2021/12/13 08:52:33;;;;;;;42.03;23.55;;;;;;;1.47;75.58;101479.48;1830684;78;20888;-69
2021/12/13 08:55:20;;;;;;;29.50;18.60;;;;;;;1.51;75.47;101479.00;1830215;78;21526;-70
2021/12/13 08:57:58;;;;;;;36.30;19.07;;;;;;;1.54;75.40;101485.45;1830591;77;20860;-69
2021/12/13 09:01:03;;;;;;;36.08;20.80;;;;;;;1.56;75.45;101479.84;1830383;77;20994;-69
2021/12/13 09:03:46;;;;;;;34.65;22.32;;;;;;;1.57;75.29;101463.44;1830303;77;20963;-69
2021/12/13 09:06:24;;;;;;;40.12;24.00;;;;;;;1.59;75.33;101451.36;1830382;77;21447;-69
2021/12/13 09:09:14;;;;;;;35.98;22.05;;;;;;;1.61;75.17;101459.52;1830281;77;21145;-67
2021/12/13 09:11:56;;;;;;;28.45;18.35;;;;;;;1.61;74.97;101456.08;1829920;77;20967;-69
2021/12/13 09:14:41;;;;;;;31.35;20.52;;;;;;;1.59;74.96;101450.06;1830261;77;20939;-69
2021/12/13 09:17:34;;;;;;;32.30;21.33;;;;;;;1.54;75.10;101441.07;1832398;77;21389;-68
2021/12/13 09:20:18;;;;;;;41.23;22.07;;;;;;;1.52;75.29;101458.31;1833240;78;20975;-70
2021/12/13 09:22:50;;;;;;;38.70;23.22;;;;;;;1.53;75.41;101456.58;1832835;78;21142;-71
2021/12/13 09:25:28;;;;;;;38.42;23.85;;;;;;;1.54;75.33;101469.50;1831652;77;20911;-70
2021/12/13 09:28:06;;;;;;;33.15;20.50;;;;;;;1.55;75.46;101465.19;1832497;77;21412;-69
2021/12/13 09:30:56;;;;;;;37.60;24.25;;;;;;;1.55;75.37;101467.33;1832868;77;20963;-69
2021/12/13 09:33:31;;;;;;;36.05;23.47;;;;;;;1.52;75.45;101449.27;1832756;78;20919;-69
2021/12/13 09:36:08;;;;;;;41.75;26.77;;;;;;;1.52;75.52;101449.27;1833244;77;21377;-68
2021/12/13 09:38:44;;;;;;;38.58;25.95;;;;;;;1.50;75.56;101448.42;1832816;78;20880;-69
2021/12/13 09:41:20;;;;;;;;;;;;;;;1.50;75.64;101444.55;1835957;78;21501;-69
2021/12/13 09:44:01;;;;;;;35.43;21.68;;;;;;;1.56;75.65;101448.81;1832908;77;20392;-68
2021/12/13 09:46:43;;;;;;;33.08;19.45;;;;;;;1.57;75.56;101433.27;1832792;77;20864;-69
2021/12/13 09:49:29;;;;;;;29.60;18.45;;;;;;;1.58;75.51;101443.17;1832890;78;21189;-70
2021/12/13 09:52:19;;;;;;;38.13;22.22;;;;;;;1.58;75.42;101431.13;1832537;78;20844;-69
2021/12/13 09:55:00;;;;;;;38.73;21.20;;;;;;;1.55;75.49;101427.70;1830958;77;20970;-68
2021/12/13 09:57:34;;;;;;;39.60;22.27;;;;;;;1.54;75.56;101444.95;1833286;78;20908;-72
2021/12/13 10:00:01;;;;;;;;;;;;;;;1.56;75.51;101432.02;1835687;77;21005;-70
2021/12/13 10:02:39;;;;;;;35.25;23.38;;;;;;;1.59;75.37;101437.14;1833985;77;21244;-70
2021/12/13 10:05:11;;;;;;;39.58;22.65;;;;;;;1.55;75.45;101423.83;1833907;78;20887;-70
2021/12/13 10:07:39;;;;;;;32.03;22.20;;;;;;;1.56;75.56;101439.33;1832965;76;20848;-70
2021/12/13 10:10:12;;;;;;;38.23;24.35;;;;;;;1.56;75.59;101421.23;1832996;77;20899;-71
2021/12/13 10:12:47;;;;;;;41.65;24.18;;;;;;;1.59;75.83;101425.52;1833121;78;21369;-69
2021/12/13 10:15:25;;;;;;;42.48;26.05;;;;;;;1.64;75.63;101421.99;1832758;78;21132;-69
2021/12/13 10:17:57;;;;;;;31.30;20.40;;;;;;;1.67;75.63;101422.42;1832106;77;20974;-70
2021/12/13 10:20:32;;;;;;;32.42;19.17;;;;;;;1.68;75.44;101429.73;1832873;78;20946;-71
2021/12/13 10:22:59;;;;;;;37.70;20.90;;;;;;;1.66;75.36;101431.88;1831736;77;20918;-69
2021/12/13 10:25:33;;;;;;;31.15;21.30;;;;;;;1.67;75.38;101434.06;1833017;77;20828;-70
2021/12/13 10:28:00;;;;;;;35.73;21.07;;;;;;;1.66;75.40;101436.20;1817253;78;21794;-69
2021/12/13 10:30:38;;;;;;;35.85;21.95;;;;;;;1.66;75.30;101421.98;1832835;77;20860;-71
2021/12/13 10:33:05;;;;;;;38.55;20.70;;;;;;;1.62;75.35;101422.88;1832977;78;21396;-70
2021/12/13 10:35:39;;;;;;;33.20;19.87;;;;;;;1.61;75.39;101421.19;1833088;78;20950;-69
2021/12/13 10:38:20;;;;;;;40.48;22.37;;;;;;;1.63;75.49;101415.56;1833084;77;20919;-69
2021/12/13 10:40:55;;;;;;;33.88;20.65;;;;;;;1.68;75.42;101412.93;1816858;78;21064;-70
2021/12/13 10:43:33;;;;;;;41.18;23.25;;;;;;;1.67;75.31;101417.25;1832754;78;20867;-71
2021/12/13 10:46:10;;;;;;;35.10;21.95;;;;;;;1.67;75.42;101413.37;1832978;77;20966;-70
2021/12/13 10:48:50;;;;;;;41.05;25.48;;;;;;;1.66;75.38;101416.37;1833000;77;20844;-71
2021/12/13 10:51:30;;;;;;;43.78;25.40;;;;;;;1.67;75.42;101404.33;1777951;80;21006;-73
2021/12/13 10:54:02;;;;;;;36.90;22.40;;;;;;;1.66;75.36;101403.89;1781195;80;21133;-71
2021/12/13 10:56:35;;;;;;;41.58;24.50;;;;;;;1.66;75.19;101403.89;1781373;80;20860;-71
2021/12/13 10:59:06;;;;;;;34.13;21.87;;;;;;;1.62;75.19;101405.67;1781382;80;20903;-70
2021/12/13 11:01:37;;;;;;;32.33;18.32;;;;;;;1.60;75.27;101411.29;1781196;80;21502;-69
2021/12/13 11:04:08;;;;;;;32.45;18.30;;;;;;;1.59;75.38;101414.73;1781261;80;21071;-70
2021/12/13 11:06:37;;;;;;;30.25;17.82;;;;;;;1.59;75.44;101414.73;1781325;80;21139;-71
2021/12/13 11:09:10;;;;;;;30.45;17.55;;;;;;;1.58;75.42;101413.03;1781155;80;20919;-71
2021/12/13 11:11:46;;;;;;;28.40;18.17;;;;;;;1.57;75.48;101411.30;1781472;80;20888;-72
2021/12/13 11:14:17;;;;;;;36.20;19.32;;;;;;;1.58;75.43;101405.27;1781301;80;21559;-70
2021/12/13 11:16:57;;;;;;;33.85;20.08;;;;;;;1.59;75.50;101395.34;1775676;80;20935;-73
2021/12/13 11:19:27;;;;;;;32.60;20.43;;;;;;;1.61;75.58;101392.75;1775906;80;21139;-71
2021/12/13 11:22:01;;;;;;;32.58;19.02;;;;;;;1.61;75.65;101384.55;1775600;80;21464;-71
2021/12/13 11:24:30;;;;;;;34.53;19.02;;;;;;;1.65;75.60;101379.77;1775642;80;21350;-71
2021/12/13 11:27:04;;;;;;;31.05;21.05;;;;;;;1.70;75.65;101369.82;1775764;80;20931;-69
2021/12/13 11:29:32;;;;;;;39.73;20.52;;;;;;;1.74;75.53;101372.80;1821671;78;20959;-70
2021/12/13 11:32:40;;;;;;;41.63;22.42;;;;;;;1.77;75.47;101368.42;1829936;78;21986;-71
2021/12/13 11:35:34;;;;;;;34.60;20.20;;;;;;;1.82;75.43;101367.08;1830152;77;21432;-69
2021/12/13 11:38:10;;;;;;;40.90;18.45;;;;;;;1.89;75.42;101360.10;1830014;77;20884;-69
2021/12/13 11:40:54;;;;;;;28.10;17.82;;;;;;;1.94;75.39;101365.66;1830006;78;20876;-68
2021/12/13 11:44:03;;;;;;;33.67;18.42;;;;;;;1.99;75.17;101385.00;1829755;78;21374;-70
2021/12/13 11:47:01;;;;;;;33.98;17.52;;;;;;;2.05;75.09;101394.83;1829917;77;21153;-71
2021/12/13 11:49:52;;;;;;;31.93;17.02;;;;;;;2.12;74.87;101393.47;1829240;78;20884;-70
2021/12/13 11:53:01;;;;;;;30.50;15.55;;;;;;;2.13;74.54;101393.42;1829906;78;21381;-69
2021/12/13 11:55:56;;;;;;;30.30;16.50;;;;;;;2.13;74.39;101389.99;1830001;78;21464;-70
2021/12/13 11:59:05;;;;;;;29.35;15.38;;;;;;;2.13;74.37;101399.89;1830383;77;20880;-70
2021/12/13 12:02:28;;;;;;;27.22;14.95;;;;;;;2.14;74.39;101387.39;1829909;77;21998;-71
2021/12/13 12:05:37;;;;;;;30.52;14.40;;;;;;;2.12;74.36;101387.00;1830049;78;20911;-69
2021/12/13 12:08:49;;;;;;;30.35;16.15;;;;;;;2.06;74.33;101391.35;1830054;77;21330;-69
2021/12/13 12:11:45;;;;;;;30.75;17.70;;;;;;;2.02;74.32;101394.00;1829959;78;20915;-71
2021/12/13 12:14:12;;;;;;;30.95;18.75;;;;;;;1.95;74.41;101381.58;1826088;78;21068;-70
2021/12/13 12:16:44;;;;;;;28.95;16.57;;;;;;;1.89;74.55;101386.84;1829756;78;21213;-70
2021/12/13 12:19:25;;;;;;;28.92;16.65;;;;;;;1.86;74.73;101385.56;1829816;77;20967;-70